sensor_id;sensor_type;location;lat;lon;timestamp;temperature;humidity
63648;DHT22;49792;48.744;9.176;2022-07-23T00:00:44;25.30;50.50
63648;DHT22;49792;48.744;9.176;2022-07-23T00:03:10;25.30;50.90
63648;DHT22;49792;48.744;9.176;2022-07-23T00:05:35;25.40;51.80
63648;DHT22;49792;48.744;9.176;2022-07-23T00:08:01;25.40;51.30
63648;DHT22;49792;48.744;9.176;2022-07-23T00:10:26;25.40;51.60
63648;DHT22;49792;48.744;9.176;2022-07-23T00:12:52;25.40;51.50
63648;DHT22;49792;48.744;9.176;2022-07-23T00:15:17;25.50;51.40
63648;DHT22;49792;48.744;9.176;2022-07-23T00:17:43;25.50;52.00
63648;DHT22;49792;48.744;9.176;2022-07-23T00:20:08;25.50;51.50
63648;DHT22;49792;48.744;9.176;2022-07-23T00:22:34;25.50;52.50
63648;DHT22;49792;48.744;9.176;2022-07-23T00:25:00;25.50;52.60
63648;DHT22;49792;48.744;9.176;2022-07-23T00:27:25;25.50;52.50
63648;DHT22;49792;48.744;9.176;2022-07-23T00:29:51;25.50;52.50
63648;DHT22;49792;48.744;9.176;2022-07-23T00:32:16;25.50;51.90
63648;DHT22;49792;48.744;9.176;2022-07-23T00:34:42;25.50;52.50
63648;DHT22;49792;48.744;9.176;2022-07-23T00:37:07;25.50;52.40
63648;DHT22;49792;48.744;9.176;2022-07-23T00:39:33;25.50;52.70
63648;DHT22;49792;48.744;9.176;2022-07-23T00:41:58;25.50;52.50
63648;DHT22;49792;48.744;9.176;2022-07-23T00:44:25;25.50;52.60
63648;DHT22;49792;48.744;9.176;2022-07-23T00:46:52;25.50;52.80
63648;DHT22;49792;48.744;9.176;2022-07-23T00:49:19;25.50;52.60
63648;DHT22;49792;48.744;9.176;2022-07-23T00:51:45;25.50;52.60
63648;DHT22;49792;48.744;9.176;2022-07-23T00:54:11;25.60;52.70
63648;DHT22;49792;48.744;9.176;2022-07-23T00:56:37;25.60;52.90
63648;DHT22;49792;48.744;9.176;2022-07-23T00:59:02;25.60;52.40
63648;DHT22;49792;48.744;9.176;2022-07-23T01:01:28;25.50;52.60
63648;DHT22;49792;48.744;9.176;2022-07-23T01:03:53;25.60;52.40
63648;DHT22;49792;48.744;9.176;2022-07-23T01:06:19;25.50;52.20
63648;DHT22;49792;48.744;9.176;2022-07-23T01:08:44;25.50;52.20
63648;DHT22;49792;48.744;9.176;2022-07-23T01:11:10;25.50;52.50
63648;DHT22;49792;48.744;9.176;2022-07-23T01:13:40;25.50;52.30
63648;DHT22;49792;48.744;9.176;2022-07-23T01:16:06;25.50;52.50
63648;DHT22;49792;48.744;9.176;2022-07-23T01:18:31;25.60;52.90
63648;DHT22;49792;48.744;9.176;2022-07-23T01:20:57;25.50;52.40
63648;DHT22;49792;48.744;9.176;2022-07-23T01:23:22;25.50;52.50
63648;DHT22;49792;48.744;9.176;2022-07-23T01:25:48;25.50;52.40
63648;DHT22;49792;48.744;9.176;2022-07-23T01:28:14;25.50;52.40
63648;DHT22;49792;48.744;9.176;2022-07-23T01:30:40;25.50;52.40
63648;DHT22;49792;48.744;9.176;2022-07-23T01:33:05;25.50;52.50
63648;DHT22;49792;48.744;9.176;2022-07-23T01:35:34;25.50;52.50
63648;DHT22;49792;48.744;9.176;2022-07-23T01:37:59;25.50;52.50
63648;DHT22;49792;48.744;9.176;2022-07-23T01:40:25;25.50;52.60
63648;DHT22;49792;48.744;9.176;2022-07-23T01:42:50;25.50;53.30
63648;DHT22;49792;48.744;9.176;2022-07-23T01:45:16;25.50;52.60
63648;DHT22;49792;48.744;9.176;2022-07-23T01:47:41;25.50;52.50
63648;DHT22;49792;48.744;9.176;2022-07-23T01:50:07;25.50;52.50
63648;DHT22;49792;48.744;9.176;2022-07-23T01:52:32;25.50;52.70
63648;DHT22;49792;48.744;9.176;2022-07-23T01:54:58;25.50;52.70
63648;DHT22;49792;48.744;9.176;2022-07-23T01:57:23;25.50;52.70
63648;DHT22;49792;48.744;9.176;2022-07-23T01:59:49;25.40;52.70
63648;DHT22;49792;48.744;9.176;2022-07-23T02:02:14;25.50;52.90
63648;DHT22;49792;48.744;9.176;2022-07-23T02:04:40;25.50;52.90
63648;DHT22;49792;48.744;9.176;2022-07-23T02:07:05;25.50;53.10
63648;DHT22;49792;48.744;9.176;2022-07-23T02:09:31;25.50;53.30
63648;DHT22;49792;48.744;9.176;2022-07-23T02:11:57;25.40;53.20
63648;DHT22;49792;48.744;9.176;2022-07-23T02:14:23;25.40;53.40
63648;DHT22;49792;48.744;9.176;2022-07-23T02:16:48;25.40;53.30
63648;DHT22;49792;48.744;9.176;2022-07-23T02:19:14;25.40;53.50
63648;DHT22;49792;48.744;9.176;2022-07-23T02:21:39;25.40;53.30
63648;DHT22;49792;48.744;9.176;2022-07-23T02:24:05;25.40;53.30
63648;DHT22;49792;48.744;9.176;2022-07-23T02:26:31;25.40;53.60
63648;DHT22;49792;48.744;9.176;2022-07-23T02:29:00;25.40;53.80
63648;DHT22;49792;48.744;9.176;2022-07-23T02:31:26;25.40;53.50
63648;DHT22;49792;48.744;9.176;2022-07-23T02:33:51;25.40;53.90
63648;DHT22;49792;48.744;9.176;2022-07-23T02:36:17;25.40;53.70
63648;DHT22;49792;48.744;9.176;2022-07-23T02:38:42;25.40;53.70
63648;DHT22;49792;48.744;9.176;2022-07-23T02:41:08;25.40;53.70
63648;DHT22;49792;48.744;9.176;2022-07-23T02:43:33;25.40;53.70
63648;DHT22;49792;48.744;9.176;2022-07-23T02:45:59;25.40;54.00
63648;DHT22;49792;48.744;9.176;2022-07-23T02:48:24;25.40;53.80
63648;DHT22;49792;48.744;9.176;2022-07-23T02:50:49;25.40;53.90
63648;DHT22;49792;48.744;9.176;2022-07-23T02:53:17;25.40;54.00
63648;DHT22;49792;48.744;9.176;2022-07-23T02:55:42;25.40;53.90
63648;DHT22;49792;48.744;9.176;2022-07-23T02:58:08;25.40;54.20
63648;DHT22;49792;48.744;9.176;2022-07-23T03:00:33;25.40;54.10
63648;DHT22;49792;48.744;9.176;2022-07-23T03:02:59;25.40;54.40
63648;DHT22;49792;48.744;9.176;2022-07-23T03:05:24;25.40;54.40
63648;DHT22;49792;48.744;9.176;2022-07-23T03:07:50;25.40;54.30
63648;DHT22;49792;48.744;9.176;2022-07-23T03:10:15;25.40;54.40
63648;DHT22;49792;48.744;9.176;2022-07-23T03:12:41;25.40;54.60
63648;DHT22;49792;48.744;9.176;2022-07-23T03:15:06;25.40;54.50
63648;DHT22;49792;48.744;9.176;2022-07-23T03:17:32;25.40;54.80
63648;DHT22;49792;48.744;9.176;2022-07-23T03:19:58;25.40;54.80
63648;DHT22;49792;48.744;9.176;2022-07-23T03:22:23;25.40;54.80
63648;DHT22;49792;48.744;9.176;2022-07-23T03:24:48;25.40;54.60
63648;DHT22;49792;48.744;9.176;2022-07-23T03:27:21;25.40;54.90
63648;DHT22;49792;48.744;9.176;2022-07-23T03:29:47;25.30;54.70
63648;DHT22;49792;48.744;9.176;2022-07-23T03:32:12;25.40;54.90
63648;DHT22;49792;48.744;9.176;2022-07-23T03:34:38;25.40;55.00
63648;DHT22;49792;48.744;9.176;2022-07-23T03:37:03;25.40;55.00
63648;DHT22;49792;48.744;9.176;2022-07-23T03:39:29;25.30;54.90
63648;DHT22;49792;48.744;9.176;2022-07-23T03:41:54;25.40;54.60
63648;DHT22;49792;48.744;9.176;2022-07-23T03:44:20;25.30;54.20
63648;DHT22;49792;48.744;9.176;2022-07-23T03:46:45;25.00;54.00
63648;DHT22;49792;48.744;9.176;2022-07-23T03:49:11;25.00;54.60
63648;DHT22;49792;48.744;9.176;2022-07-23T03:51:36;25.10;54.10
63648;DHT22;49792;48.744;9.176;2022-07-23T03:54:01;25.10;54.00
63648;DHT22;49792;48.744;9.176;2022-07-23T03:56:27;25.10;53.60
63648;DHT22;49792;48.744;9.176;2022-07-23T03:58:53;25.00;54.10
63648;DHT22;49792;48.744;9.176;2022-07-23T04:01:18;25.00;54.30
63648;DHT22;49792;48.744;9.176;2022-07-23T04:03:44;25.10;54.20
63648;DHT22;49792;48.744;9.176;2022-07-23T04:06:09;25.10;53.80
63648;DHT22;49792;48.744;9.176;2022-07-23T04:08:35;25.20;53.60
63648;DHT22;49792;48.744;9.176;2022-07-23T04:11:00;25.10;53.80
63648;DHT22;49792;48.744;9.176;2022-07-23T04:13:26;25.10;54.00
63648;DHT22;49792;48.744;9.176;2022-07-23T04:15:51;25.00;53.70
63648;DHT22;49792;48.744;9.176;2022-07-23T04:18:17;25.10;53.90
63648;DHT22;49792;48.744;9.176;2022-07-23T04:20:43;25.10;53.80
63648;DHT22;49792;48.744;9.176;2022-07-23T04:23:08;25.10;54.00
63648;DHT22;49792;48.744;9.176;2022-07-23T04:25:35;25.10;54.00
63648;DHT22;49792;48.744;9.176;2022-07-23T04:28:00;25.00;53.90
63648;DHT22;49792;48.744;9.176;2022-07-23T04:30:26;25.00;54.10
63648;DHT22;49792;48.744;9.176;2022-07-23T04:32:52;25.10;53.60
63648;DHT22;49792;48.744;9.176;2022-07-23T04:35:17;25.10;53.70
63648;DHT22;49792;48.744;9.176;2022-07-23T04:37:43;25.10;53.70
63648;DHT22;49792;48.744;9.176;2022-07-23T04:40:08;25.10;53.60
63648;DHT22;49792;48.744;9.176;2022-07-23T04:42:34;25.10;53.80
63648;DHT22;49792;48.744;9.176;2022-07-23T04:44:59;25.10;53.60
63648;DHT22;49792;48.744;9.176;2022-07-23T04:47:25;25.10;54.00
63648;DHT22;49792;48.744;9.176;2022-07-23T04:49:50;25.10;53.70
63648;DHT22;49792;48.744;9.176;2022-07-23T04:52:16;25.10;53.60
63648;DHT22;49792;48.744;9.176;2022-07-23T04:54:41;25.10;53.70
63648;DHT22;49792;48.744;9.176;2022-07-23T04:57:07;25.10;53.60
63648;DHT22;49792;48.744;9.176;2022-07-23T04:59:32;25.10;53.70
63648;DHT22;49792;48.744;9.176;2022-07-23T05:01:58;25.00;53.50
63648;DHT22;49792;48.744;9.176;2022-07-23T05:04:23;25.00;53.80
63648;DHT22;49792;48.744;9.176;2022-07-23T05:06:49;25.00;53.40
63648;DHT22;49792;48.744;9.176;2022-07-23T05:09:14;25.00;53.60
63648;DHT22;49792;48.744;9.176;2022-07-23T05:11:40;25.00;53.40
63648;DHT22;49792;48.744;9.176;2022-07-23T05:14:05;25.00;53.30
63648;DHT22;49792;48.744;9.176;2022-07-23T05:16:31;25.00;53.60
63648;DHT22;49792;48.744;9.176;2022-07-23T05:18:57;25.00;53.50
63648;DHT22;49792;48.744;9.176;2022-07-23T05:21:22;25.00;53.40
63648;DHT22;49792;48.744;9.176;2022-07-23T05:23:48;25.00;53.20
63648;DHT22;49792;48.744;9.176;2022-07-23T05:26:13;25.00;53.30
63648;DHT22;49792;48.744;9.176;2022-07-23T05:28:39;25.00;53.30
63648;DHT22;49792;48.744;9.176;2022-07-23T05:31:04;25.00;53.60
63648;DHT22;49792;48.744;9.176;2022-07-23T05:33:30;25.00;53.30
63648;DHT22;49792;48.744;9.176;2022-07-23T05:36:02;25.00;53.90
63648;DHT22;49792;48.744;9.176;2022-07-23T05:38:28;25.00;53.90
63648;DHT22;49792;48.744;9.176;2022-07-23T05:40:54;25.00;53.30
63648;DHT22;49792;48.744;9.176;2022-07-23T05:43:19;25.00;53.80
63648;DHT22;49792;48.744;9.176;2022-07-23T05:45:45;25.00;53.40
63648;DHT22;49792;48.744;9.176;2022-07-23T05:48:10;25.00;53.50
63648;DHT22;49792;48.744;9.176;2022-07-23T05:50:36;25.00;53.50
63648;DHT22;49792;48.744;9.176;2022-07-23T05:53:01;25.00;53.70
63648;DHT22;49792;48.744;9.176;2022-07-23T05:55:27;25.00;53.90
63648;DHT22;49792;48.744;9.176;2022-07-23T05:57:55;24.90;54.10
63648;DHT22;49792;48.744;9.176;2022-07-23T06:00:20;25.00;54.50
63648;DHT22;49792;48.744;9.176;2022-07-23T06:02:46;25.00;54.20
63648;DHT22;49792;48.744;9.176;2022-07-23T06:05:11;25.00;54.10
63648;DHT22;49792;48.744;9.176;2022-07-23T06:07:37;25.00;53.90
63648;DHT22;49792;48.744;9.176;2022-07-23T06:10:03;25.00;54.30
63648;DHT22;49792;48.744;9.176;2022-07-23T06:12:29;25.00;54.30
63648;DHT22;49792;48.744;9.176;2022-07-23T06:14:54;25.00;54.40
63648;DHT22;49792;48.744;9.176;2022-07-23T06:17:20;25.10;54.20
63648;DHT22;49792;48.744;9.176;2022-07-23T06:19:45;25.00;54.30
63648;DHT22;49792;48.744;9.176;2022-07-23T06:22:11;25.00;54.50
63648;DHT22;49792;48.744;9.176;2022-07-23T06:24:36;25.00;54.10
63648;DHT22;49792;48.744;9.176;2022-07-23T06:27:03;25.00;54.30
63648;DHT22;49792;48.744;9.176;2022-07-23T06:29:28;25.00;54.10
63648;DHT22;49792;48.744;9.176;2022-07-23T06:31:54;25.00;54.30
63648;DHT22;49792;48.744;9.176;2022-07-23T06:34:19;25.00;55.10
63648;DHT22;49792;48.744;9.176;2022-07-23T06:36:45;25.00;54.00
63648;DHT22;49792;48.744;9.176;2022-07-23T06:39:10;25.00;54.10
63648;DHT22;49792;48.744;9.176;2022-07-23T06:41:36;25.00;54.20
63648;DHT22;49792;48.744;9.176;2022-07-23T06:44:02;24.90;54.00
63648;DHT22;49792;48.744;9.176;2022-07-23T06:46:27;24.90;54.10
63648;DHT22;49792;48.744;9.176;2022-07-23T06:48:53;24.90;53.90
63648;DHT22;49792;48.744;9.176;2022-07-23T06:51:18;24.90;53.90
63648;DHT22;49792;48.744;9.176;2022-07-23T06:53:44;24.90;53.80
63648;DHT22;49792;48.744;9.176;2022-07-23T06:56:09;24.90;53.60
63648;DHT22;49792;48.744;9.176;2022-07-23T06:58:35;24.80;54.20
63648;DHT22;49792;48.744;9.176;2022-07-23T07:01:00;24.70;53.90
63648;DHT22;49792;48.744;9.176;2022-07-23T07:03:26;24.70;54.30
63648;DHT22;49792;48.744;9.176;2022-07-23T07:05:51;24.80;54.70
63648;DHT22;49792;48.744;9.176;2022-07-23T07:08:18;24.70;53.90
63648;DHT22;49792;48.744;9.176;2022-07-23T07:10:44;24.70;53.60
63648;DHT22;49792;48.744;9.176;2022-07-23T07:13:09;24.70;53.90
63648;DHT22;49792;48.744;9.176;2022-07-23T07:15:35;24.80;53.40
63648;DHT22;49792;48.744;9.176;2022-07-23T07:18:00;24.80;53.20
63648;DHT22;49792;48.744;9.176;2022-07-23T07:20:26;24.70;54.20
63648;DHT22;49792;48.744;9.176;2022-07-23T07:22:51;24.60;53.10
63648;DHT22;49792;48.744;9.176;2022-07-23T07:25:17;24.70;53.30
63648;DHT22;49792;48.744;9.176;2022-07-23T07:27:42;24.50;52.90
63648;DHT22;49792;48.744;9.176;2022-07-23T07:30:09;24.60;54.80
63648;DHT22;49792;48.744;9.176;2022-07-23T07:32:35;24.60;54.50
63648;DHT22;49792;48.744;9.176;2022-07-23T07:35:04;24.80;52.40
63648;DHT22;49792;48.744;9.176;2022-07-23T07:37:30;24.50;53.80
63648;DHT22;49792;48.744;9.176;2022-07-23T07:39:55;24.30;54.50
63648;DHT22;49792;48.744;9.176;2022-07-23T07:42:21;24.20;55.10
63648;DHT22;49792;48.744;9.176;2022-07-23T07:44:47;24.60;56.00
63648;DHT22;49792;48.744;9.176;2022-07-23T07:47:12;25.00;55.10
63648;DHT22;49792;48.744;9.176;2022-07-23T07:49:43;25.10;54.60
63648;DHT22;49792;48.744;9.176;2022-07-23T07:52:09;25.10;53.80
63648;DHT22;49792;48.744;9.176;2022-07-23T07:54:34;25.10;53.80
63648;DHT22;49792;48.744;9.176;2022-07-23T07:57:00;25.10;53.60
63648;DHT22;49792;48.744;9.176;2022-07-23T07:59:25;25.10;53.70
63648;DHT22;49792;48.744;9.176;2022-07-23T08:01:51;25.10;53.70
63648;DHT22;49792;48.744;9.176;2022-07-23T08:04:16;25.10;53.30
63648;DHT22;49792;48.744;9.176;2022-07-23T08:06:42;25.10;53.50
63648;DHT22;49792;48.744;9.176;2022-07-23T08:09:08;25.20;54.20
63648;DHT22;49792;48.744;9.176;2022-07-23T08:11:33;25.20;54.10
63648;DHT22;49792;48.744;9.176;2022-07-23T08:13:58;25.20;54.00
63648;DHT22;49792;48.744;9.176;2022-07-23T08:16:24;25.20;54.20
63648;DHT22;49792;48.744;9.176;2022-07-23T08:18:50;25.20;54.40
63648;DHT22;49792;48.744;9.176;2022-07-23T08:21:15;25.30;54.20
63648;DHT22;49792;48.744;9.176;2022-07-23T08:23:41;25.20;54.40
63648;DHT22;49792;48.744;9.176;2022-07-23T08:26:06;25.20;54.10
63648;DHT22;49792;48.744;9.176;2022-07-23T08:28:32;25.30;56.30
63648;DHT22;49792;48.744;9.176;2022-07-23T08:30:58;25.30;54.50
63648;DHT22;49792;48.744;9.176;2022-07-23T08:33:24;25.30;54.10
63648;DHT22;49792;48.744;9.176;2022-07-23T08:35:50;25.30;54.90
63648;DHT22;49792;48.744;9.176;2022-07-23T08:38:20;25.20;54.30
63648;DHT22;49792;48.744;9.176;2022-07-23T08:40:47;25.10;54.00
63648;DHT22;49792;48.744;9.176;2022-07-23T08:43:22;24.90;54.00
63648;DHT22;49792;48.744;9.176;2022-07-23T08:45:49;25.00;55.70
63648;DHT22;49792;48.744;9.176;2022-07-23T08:48:19;25.10;53.80
63648;DHT22;49792;48.744;9.176;2022-07-23T08:50:45;24.80;54.60
63648;DHT22;49792;48.744;9.176;2022-07-23T08:53:11;24.90;54.30
63648;DHT22;49792;48.744;9.176;2022-07-23T08:55:37;25.00;55.50
63648;DHT22;49792;48.744;9.176;2022-07-23T08:58:02;25.20;55.30
63648;DHT22;49792;48.744;9.176;2022-07-23T09:00:28;25.20;54.30
63648;DHT22;49792;48.744;9.176;2022-07-23T09:02:54;25.40;54.80
63648;DHT22;49792;48.744;9.176;2022-07-23T09:05:20;25.40;54.10
63648;DHT22;49792;48.744;9.176;2022-07-23T09:10:29;25.30;54.50
63648;DHT22;49792;48.744;9.176;2022-07-23T09:12:54;25.30;55.00
63648;DHT22;49792;48.744;9.176;2022-07-23T09:15:20;25.40;55.10
63648;DHT22;49792;48.744;9.176;2022-07-23T09:17:45;25.30;55.00
63648;DHT22;49792;48.744;9.176;2022-07-23T09:20:12;25.30;55.20
63648;DHT22;49792;48.744;9.176;2022-07-23T09:22:38;25.30;55.30
63648;DHT22;49792;48.744;9.176;2022-07-23T09:25:08;25.30;55.20
63648;DHT22;49792;48.744;9.176;2022-07-23T09:30:19;25.30;55.20
63648;DHT22;49792;48.744;9.176;2022-07-23T09:33:02;25.30;55.20
63648;DHT22;49792;48.744;9.176;2022-07-23T09:35:43;25.20;55.10
63648;DHT22;49792;48.744;9.176;2022-07-23T09:38:08;25.20;55.10
63648;DHT22;49792;48.744;9.176;2022-07-23T09:40:34;25.20;55.20
63648;DHT22;49792;48.744;9.176;2022-07-23T09:42:59;25.30;55.00
63648;DHT22;49792;48.744;9.176;2022-07-23T09:45:25;25.30;55.00
63648;DHT22;49792;48.744;9.176;2022-07-23T09:47:50;25.30;54.80
63648;DHT22;49792;48.744;9.176;2022-07-23T09:50:16;25.30;55.00
63648;DHT22;49792;48.744;9.176;2022-07-23T09:52:45;25.30;54.80
63648;DHT22;49792;48.744;9.176;2022-07-23T09:55:13;25.20;54.80
63648;DHT22;49792;48.744;9.176;2022-07-23T09:57:40;25.30;54.90
63648;DHT22;49792;48.744;9.176;2022-07-23T10:00:07;25.30;54.90
63648;DHT22;49792;48.744;9.176;2022-07-23T10:02:34;25.30;54.80
63648;DHT22;49792;48.744;9.176;2022-07-23T10:05:03;25.30;54.80
63648;DHT22;49792;48.744;9.176;2022-07-23T10:07:33;25.30;54.50
63648;DHT22;49792;48.744;9.176;2022-07-23T10:10:00;25.20;54.60
63648;DHT22;49792;48.744;9.176;2022-07-23T10:12:26;25.30;54.50
63648;DHT22;49792;48.744;9.176;2022-07-23T10:15:00;25.30;54.50
63648;DHT22;49792;48.744;9.176;2022-07-23T10:17:29;25.30;54.50
63648;DHT22;49792;48.744;9.176;2022-07-23T10:19:55;25.30;54.70
63648;DHT22;49792;48.744;9.176;2022-07-23T10:22:22;25.30;54.90
63648;DHT22;49792;48.744;9.176;2022-07-23T10:25:10;25.30;55.00
63648;DHT22;49792;48.744;9.176;2022-07-23T10:27:47;25.30;55.00
63648;DHT22;49792;48.744;9.176;2022-07-23T10:32:56;25.30;55.20
63648;DHT22;49792;48.744;9.176;2022-07-23T10:38:17;25.30;55.40
63648;DHT22;49792;48.744;9.176;2022-07-23T10:40:57;25.30;55.50
63648;DHT22;49792;48.744;9.176;2022-07-23T10:43:23;25.30;55.50
63648;DHT22;49792;48.744;9.176;2022-07-23T10:45:49;25.30;55.50
63648;DHT22;49792;48.744;9.176;2022-07-23T10:48:15;25.30;55.60
63648;DHT22;49792;48.744;9.176;2022-07-23T10:50:42;25.30;55.60
63648;DHT22;49792;48.744;9.176;2022-07-23T10:53:13;25.30;55.60
63648;DHT22;49792;48.744;9.176;2022-07-23T10:55:45;25.30;55.60
63648;DHT22;49792;48.744;9.176;2022-07-23T10:58:10;25.30;55.60
63648;DHT22;49792;48.744;9.176;2022-07-23T11:00:36;25.30;55.50
63648;DHT22;49792;48.744;9.176;2022-07-23T11:03:03;25.30;55.50
63648;DHT22;49792;48.744;9.176;2022-07-23T11:10:39;25.30;55.40
63648;DHT22;49792;48.744;9.176;2022-07-23T11:34:40;25.30;55.10
63648;DHT22;49792;48.744;9.176;2022-07-23T11:37:07;25.30;55.00
63648;DHT22;49792;48.744;9.176;2022-07-23T11:39:33;25.30;56.00
63648;DHT22;49792;48.744;9.176;2022-07-23T11:41:59;25.30;55.10
63648;DHT22;49792;48.744;9.176;2022-07-23T11:44:32;25.30;55.00
63648;DHT22;49792;48.744;9.176;2022-07-23T11:49:24;25.40;55.40
63648;DHT22;49792;48.744;9.176;2022-07-23T11:52:06;25.40;55.60
63648;DHT22;49792;48.744;9.176;2022-07-23T11:54:32;25.40;55.40
63648;DHT22;49792;48.744;9.176;2022-07-23T11:56:59;25.50;57.00
63648;DHT22;49792;48.744;9.176;2022-07-23T11:59:31;25.50;58.30
63648;DHT22;49792;48.744;9.176;2022-07-23T12:01:58;25.50;58.50
63648;DHT22;49792;48.744;9.176;2022-07-23T12:04:25;25.50;58.50
63648;DHT22;49792;48.744;9.176;2022-07-23T12:06:50;25.60;58.70
63648;DHT22;49792;48.744;9.176;2022-07-23T12:09:16;25.60;58.10
63648;DHT22;49792;48.744;9.176;2022-07-23T12:12:02;25.60;57.20
63648;DHT22;49792;48.744;9.176;2022-07-23T12:14:27;25.60;57.20
63648;DHT22;49792;48.744;9.176;2022-07-23T12:17:08;25.70;56.70
63648;DHT22;49792;48.744;9.176;2022-07-23T12:19:34;25.80;56.70
63648;DHT22;49792;48.744;9.176;2022-07-23T12:22:00;25.70;57.30
63648;DHT22;49792;48.744;9.176;2022-07-23T12:24:25;25.70;57.50
63648;DHT22;49792;48.744;9.176;2022-07-23T12:27:10;25.70;57.10
63648;DHT22;49792;48.744;9.176;2022-07-23T12:29:36;25.70;57.20
63648;DHT22;49792;48.744;9.176;2022-07-23T12:32:02;25.70;57.00
63648;DHT22;49792;48.744;9.176;2022-07-23T12:34:27;25.70;57.00
63648;DHT22;49792;48.744;9.176;2022-07-23T12:36:53;25.70;57.10
63648;DHT22;49792;48.744;9.176;2022-07-23T12:39:31;25.70;56.80
63648;DHT22;49792;48.744;9.176;2022-07-23T12:41:57;25.80;57.00
63648;DHT22;49792;48.744;9.176;2022-07-23T12:44:22;25.80;57.10
63648;DHT22;49792;48.744;9.176;2022-07-23T12:46:54;25.80;57.20
63648;DHT22;49792;48.744;9.176;2022-07-23T12:49:26;25.80;56.80
63648;DHT22;49792;48.744;9.176;2022-07-23T12:51:51;25.70;57.50
63648;DHT22;49792;48.744;9.176;2022-07-23T12:54:17;25.70;56.30
63648;DHT22;49792;48.744;9.176;2022-07-23T12:56:45;25.70;56.90
63648;DHT22;49792;48.744;9.176;2022-07-23T12:59:12;25.80;56.90
63648;DHT22;49792;48.744;9.176;2022-07-23T13:01:42;25.80;56.60
63648;DHT22;49792;48.744;9.176;2022-07-23T13:04:09;25.80;56.90
63648;DHT22;49792;48.744;9.176;2022-07-23T13:06:41;25.80;56.90
63648;DHT22;49792;48.744;9.176;2022-07-23T13:09:08;25.80;56.60
63648;DHT22;49792;48.744;9.176;2022-07-23T13:11:34;25.80;57.00
63648;DHT22;49792;48.744;9.176;2022-07-23T13:14:00;25.80;57.10
63648;DHT22;49792;48.744;9.176;2022-07-23T13:16:26;25.90;57.90
63648;DHT22;49792;48.744;9.176;2022-07-23T13:18:52;25.90;56.90
63648;DHT22;49792;48.744;9.176;2022-07-23T13:21:17;25.80;56.90
63648;DHT22;49792;48.744;9.176;2022-07-23T13:23:43;25.80;56.30
63648;DHT22;49792;48.744;9.176;2022-07-23T13:26:08;25.90;56.10
63648;DHT22;49792;48.744;9.176;2022-07-23T13:28:34;25.80;56.40
63648;DHT22;49792;48.744;9.176;2022-07-23T13:30:59;25.80;56.20
63648;DHT22;49792;48.744;9.176;2022-07-23T13:33:25;25.80;56.40
63648;DHT22;49792;48.744;9.176;2022-07-23T13:35:51;25.90;56.30
63648;DHT22;49792;48.744;9.176;2022-07-23T13:38:17;25.90;56.50
63648;DHT22;49792;48.744;9.176;2022-07-23T13:40:43;25.90;56.70
63648;DHT22;49792;48.744;9.176;2022-07-23T13:43:10;25.90;56.60
63648;DHT22;49792;48.744;9.176;2022-07-23T13:45:36;25.80;56.60
63648;DHT22;49792;48.744;9.176;2022-07-23T13:48:02;25.90;57.70
63648;DHT22;49792;48.744;9.176;2022-07-23T13:50:28;26.00;56.80
63648;DHT22;49792;48.744;9.176;2022-07-23T13:52:53;25.90;56.30
63648;DHT22;49792;48.744;9.176;2022-07-23T13:55:19;25.90;56.80
63648;DHT22;49792;48.744;9.176;2022-07-23T13:57:44;25.90;56.60
63648;DHT22;49792;48.744;9.176;2022-07-23T14:00:10;25.90;56.30
63648;DHT22;49792;48.744;9.176;2022-07-23T14:02:37;25.80;56.30
63648;DHT22;49792;48.744;9.176;2022-07-23T14:05:06;25.80;56.20
63648;DHT22;49792;48.744;9.176;2022-07-23T14:07:34;25.80;56.10
63648;DHT22;49792;48.744;9.176;2022-07-23T14:09:59;25.80;56.10
63648;DHT22;49792;48.744;9.176;2022-07-23T14:12:25;25.80;56.10
63648;DHT22;49792;48.744;9.176;2022-07-23T14:14:51;25.80;56.00
63648;DHT22;49792;48.744;9.176;2022-07-23T14:17:16;25.80;55.80
63648;DHT22;49792;48.744;9.176;2022-07-23T14:19:42;25.80;56.80
63648;DHT22;49792;48.744;9.176;2022-07-23T14:22:08;25.80;55.70
63648;DHT22;49792;48.744;9.176;2022-07-23T14:24:33;25.80;55.80
63648;DHT22;49792;48.744;9.176;2022-07-23T14:27:00;25.80;55.60
63648;DHT22;49792;48.744;9.176;2022-07-23T14:29:26;25.70;55.70
63648;DHT22;49792;48.744;9.176;2022-07-23T14:31:51;25.80;55.70
63648;DHT22;49792;48.744;9.176;2022-07-23T14:34:17;25.80;55.80
63648;DHT22;49792;48.744;9.176;2022-07-23T14:36:43;25.70;55.70
63648;DHT22;49792;48.744;9.176;2022-07-23T14:39:08;25.80;55.70
63648;DHT22;49792;48.744;9.176;2022-07-23T14:41:34;25.70;55.70
63648;DHT22;49792;48.744;9.176;2022-07-23T14:44:00;25.70;55.60
63648;DHT22;49792;48.744;9.176;2022-07-23T14:46:26;25.70;55.60
63648;DHT22;49792;48.744;9.176;2022-07-23T14:48:52;25.70;55.90
63648;DHT22;49792;48.744;9.176;2022-07-23T14:51:17;25.80;55.70
63648;DHT22;49792;48.744;9.176;2022-07-23T14:53:43;25.80;55.60
63648;DHT22;49792;48.744;9.176;2022-07-23T14:56:09;25.80;55.70
63648;DHT22;49792;48.744;9.176;2022-07-23T14:58:34;25.80;55.70
63648;DHT22;49792;48.744;9.176;2022-07-23T15:01:00;25.70;55.60
63648;DHT22;49792;48.744;9.176;2022-07-23T15:03:25;25.70;55.80
63648;DHT22;49792;48.744;9.176;2022-07-23T15:05:51;25.70;55.60
63648;DHT22;49792;48.744;9.176;2022-07-23T15:08:17;25.70;55.40
63648;DHT22;49792;48.744;9.176;2022-07-23T15:10:42;25.80;56.00
63648;DHT22;49792;48.744;9.176;2022-07-23T15:13:08;25.80;55.20
63648;DHT22;49792;48.744;9.176;2022-07-23T15:15:33;25.80;56.00
63648;DHT22;49792;48.744;9.176;2022-07-23T15:17:58;25.80;55.60
63648;DHT22;49792;48.744;9.176;2022-07-23T15:20:24;25.80;55.60
63648;DHT22;49792;48.744;9.176;2022-07-23T15:22:49;25.80;55.20
63648;DHT22;49792;48.744;9.176;2022-07-23T15:25:15;25.80;55.30
63648;DHT22;49792;48.744;9.176;2022-07-23T15:27:40;25.90;56.20
63648;DHT22;49792;48.744;9.176;2022-07-23T15:30:06;25.80;55.00
63648;DHT22;49792;48.744;9.176;2022-07-23T15:32:32;25.90;55.20
63648;DHT22;49792;48.744;9.176;2022-07-23T15:34:57;25.80;55.00
63648;DHT22;49792;48.744;9.176;2022-07-23T15:37:23;25.80;55.10
63648;DHT22;49792;48.744;9.176;2022-07-23T15:39:49;25.80;55.30
63648;DHT22;49792;48.744;9.176;2022-07-23T15:42:14;25.90;55.10
63648;DHT22;49792;48.744;9.176;2022-07-23T15:44:40;25.90;54.90
63648;DHT22;49792;48.744;9.176;2022-07-23T15:47:05;26.00;55.00
63648;DHT22;49792;48.744;9.176;2022-07-23T15:49:36;26.00;55.00
63648;DHT22;49792;48.744;9.176;2022-07-23T15:52:01;25.90;54.80
63648;DHT22;49792;48.744;9.176;2022-07-23T15:54:26;25.90;54.70
63648;DHT22;49792;48.744;9.176;2022-07-23T15:56:52;25.90;54.70
63648;DHT22;49792;48.744;9.176;2022-07-23T15:59:18;25.90;54.50
63648;DHT22;49792;48.744;9.176;2022-07-23T16:01:43;25.90;54.70
63648;DHT22;49792;48.744;9.176;2022-07-23T16:04:08;25.90;54.90